Sandford, United Kingdom
Current Conditions -  °F | °C
As of 7:20 PM on Friday 24 Oct 2014 (Local Time) from EGGD Reporting Station
Drizzle Drizzle  
Wind Chill: 11°   Ceiling: 2200
Heat Index: 11°   Visibility: 6mi
Dew Point: 10°   Wind: 13mph
Humidity: 94%   Direction: 270°W
Pressure: 29.94"   Gusts: NA
Location:  51.33°N, 2.83°W
Report Text: EGGD 241820Z 27011KT 9999 -DZ SCT011 BKN022 11/10 Q1014
Loading
Personal Weather Stations






























Interactive Weather Map
Tropical Storm Tracking
New forecast layout! Learn more

10-Day Weather Forecast

Advertisements
Track Severe Weather on mobile